createdAt,value
2018-06-28T00:01:39.802Z,19.40
2018-06-28T00:04:08.966Z,19.50
2018-06-28T00:06:38.114Z,19.40
2018-06-28T00:09:08.489Z,19.40
2018-06-28T00:11:37.675Z,19.40
2018-06-28T00:14:06.881Z,19.40
2018-06-28T00:16:36.132Z,19.20
2018-06-28T00:19:05.265Z,19.20
2018-06-28T00:21:34.432Z,19.10
2018-06-28T00:24:03.541Z,19.10
2018-06-28T00:26:32.666Z,19.10
2018-06-28T00:29:01.998Z,19.00
2018-06-28T00:31:31.191Z,19.10
2018-06-28T00:34:00.351Z,19.10
2018-06-28T00:36:29.544Z,19.20
2018-06-28T00:38:58.693Z,19.20
2018-06-28T00:41:27.815Z,19.20
2018-06-28T00:43:56.940Z,19.20
2018-06-28T00:46:26.083Z,19.20
2018-06-28T00:48:55.178Z,19.10
2018-06-28T00:51:24.304Z,19.20
2018-06-28T00:53:53.464Z,19.20
2018-06-28T00:56:22.933Z,19.10
2018-06-28T00:58:52.037Z,19.00
2018-06-28T01:01:21.178Z,19.00
2018-06-28T01:03:50.357Z,18.90
2018-06-28T01:06:19.553Z,18.90
2018-06-28T01:08:48.665Z,18.60
2018-06-28T01:11:17.832Z,18.70
2018-06-28T01:13:46.986Z,18.70
2018-06-28T01:18:45.190Z,18.80
2018-06-28T01:21:15.472Z,18.80
2018-06-28T01:23:44.548Z,18.80
2018-06-28T01:26:13.670Z,18.80
2018-06-28T01:28:42.774Z,18.80
2018-06-28T01:31:11.893Z,18.70
2018-06-28T01:33:41.106Z,18.40
2018-06-28T01:36:10.258Z,18.50
2018-06-28T01:38:39.395Z,18.10
2018-06-28T01:41:08.522Z,18.20
2018-06-28T01:43:45.577Z,17.90
2018-06-28T01:46:15.376Z,17.80
2018-06-28T01:48:44.694Z,17.90
2018-06-28T01:51:13.888Z,18.10
2018-06-28T01:53:43.074Z,18.20
2018-06-28T01:56:12.338Z,18.20
2018-06-28T01:58:41.466Z,18.20
2018-06-28T02:01:10.637Z,18.00
2018-06-28T02:03:39.900Z,17.90
2018-06-28T02:06:09.049Z,17.90
2018-06-28T02:08:38.209Z,17.90
2018-06-28T02:11:07.346Z,18.00
2018-06-28T02:13:36.486Z,18.10
2018-06-28T02:18:34.403Z,18.10
2018-06-28T02:21:03.580Z,18.20
2018-06-28T02:23:32.690Z,18.30
2018-06-28T02:26:01.811Z,18.30
2018-06-28T02:28:30.935Z,18.10
2018-06-28T02:31:00.070Z,18.10
2018-06-28T02:33:29.225Z,18.20
2018-06-28T02:35:58.399Z,18.20
2018-06-28T02:38:27.543Z,18.20
2018-06-28T02:40:56.702Z,18.20
2018-06-28T02:43:25.884Z,18.20
2018-06-28T02:45:55.029Z,18.30
2018-06-28T02:48:24.166Z,18.20
2018-06-28T02:50:53.290Z,18.10
2018-06-28T02:53:22.491Z,18.00
2018-06-28T02:55:51.670Z,17.90
2018-06-28T02:58:20.821Z,17.70
2018-06-28T03:00:49.964Z,17.70
2018-06-28T03:03:19.070Z,17.70
2018-06-28T03:05:48.199Z,17.70
2018-06-28T03:08:17.361Z,17.80
2018-06-28T03:10:47.524Z,17.80
2018-06-28T03:13:16.686Z,17.90
2018-06-28T03:15:45.816Z,17.80
2018-06-28T03:18:14.981Z,17.80
2018-06-28T03:20:44.162Z,17.70
2018-06-28T03:23:13.261Z,17.70
2018-06-28T03:25:42.445Z,17.70
2018-06-28T03:28:12.577Z,17.80
2018-06-28T03:30:41.758Z,17.80
2018-06-28T03:33:10.919Z,17.80
2018-06-28T03:35:40.107Z,17.80
2018-06-28T03:40:38.462Z,17.60
2018-06-28T03:43:07.582Z,17.70
2018-06-28T03:45:36.705Z,17.40
2018-06-28T03:48:05.892Z,17.40
2018-06-28T03:50:35.042Z,17.30
2018-06-28T03:53:04.234Z,17.40
2018-06-28T03:55:33.377Z,17.50
2018-06-28T03:58:02.546Z,17.50
2018-06-28T04:00:31.657Z,17.50
2018-06-28T04:03:00.883Z,17.50
2018-06-28T04:05:30.027Z,17.50
2018-06-28T04:07:59.163Z,17.50
2018-06-28T04:10:28.355Z,17.50
2018-06-28T04:12:57.459Z,17.50
2018-06-28T04:15:26.609Z,17.50
2018-06-28T04:17:55.764Z,17.50
2018-06-28T04:20:25.024Z,17.50
2018-06-28T04:22:54.145Z,17.50
2018-06-28T04:25:23.299Z,17.50
2018-06-28T04:27:52.432Z,17.50
2018-06-28T04:30:21.619Z,17.50
2018-06-28T04:32:50.751Z,17.60
2018-06-28T04:35:19.961Z,17.70
2018-06-28T04:37:49.069Z,17.80
2018-06-28T04:40:18.219Z,17.80
2018-06-28T04:42:47.318Z,17.80
2018-06-28T04:45:16.450Z,17.70
2018-06-28T04:47:45.597Z,17.80
2018-06-28T04:50:14.738Z,17.80
2018-06-28T04:52:43.905Z,17.90
2018-06-28T04:55:13.045Z,17.90
2018-06-28T04:57:42.215Z,17.90
2018-06-28T05:00:11.354Z,17.80
2018-06-28T05:02:40.460Z,17.90
2018-06-28T05:05:09.629Z,17.90
2018-06-28T05:07:38.732Z,17.90
2018-06-28T05:10:07.908Z,17.90
2018-06-28T05:12:37.102Z,17.80
2018-06-28T05:15:06.233Z,17.90
2018-06-28T05:17:35.814Z,18.00
2018-06-28T05:20:04.978Z,18.00
2018-06-28T05:22:34.098Z,18.00
2018-06-28T05:25:03.214Z,18.10
2018-06-28T05:27:32.382Z,18.10
2018-06-28T05:30:01.546Z,18.10
2018-06-28T05:32:30.684Z,18.20
2018-06-28T05:34:59.985Z,18.30
2018-06-28T05:37:29.086Z,18.50
2018-06-28T05:39:58.291Z,18.50
2018-06-28T05:42:27.564Z,18.50
2018-06-28T05:44:57.368Z,18.50
2018-06-28T05:47:26.579Z,18.20
2018-06-28T05:49:55.721Z,18.30
2018-06-28T05:52:24.863Z,18.50
2018-06-28T05:54:54.001Z,18.70
2018-06-28T05:57:23.095Z,18.80
2018-06-28T05:59:52.206Z,18.90
2018-06-28T06:02:21.354Z,18.80
2018-06-28T06:04:50.621Z,18.60
2018-06-28T06:07:19.740Z,18.50
2018-06-28T06:09:49.202Z,18.50
2018-06-28T06:12:18.335Z,18.70
2018-06-28T06:14:47.442Z,19.10
2018-06-28T06:17:16.579Z,19.30
2018-06-28T06:19:45.785Z,19.40
2018-06-28T06:22:15.079Z,19.10
2018-06-28T06:24:44.220Z,19.80
2018-06-28T06:27:13.355Z,20.00
2018-06-28T06:29:42.514Z,20.30
2018-06-28T06:32:11.729Z,20.50
2018-06-28T06:37:09.639Z,20.40
2018-06-28T06:39:38.774Z,20.20
2018-06-28T06:42:07.929Z,20.50
2018-06-28T06:44:37.084Z,21.00
2018-06-28T06:47:06.246Z,21.50
2018-06-28T06:49:35.397Z,22.00
2018-06-28T06:52:04.600Z,22.60
2018-06-28T06:57:02.445Z,23.40
2018-06-28T06:59:31.618Z,25.10
2018-06-28T07:02:02.542Z,26.40
2018-06-28T07:04:33.456Z,28.00
2018-06-28T07:07:04.201Z,29.40
2018-06-28T07:09:33.446Z,30.70
2018-06-28T07:12:02.771Z,31.40
2018-06-28T07:14:31.992Z,32.30
2018-06-28T07:17:01.174Z,32.90
2018-06-28T07:19:33.304Z,32.60
2018-06-28T07:22:02.522Z,33.60
2018-06-28T07:24:31.650Z,34.20
2018-06-28T07:27:00.821Z,34.80
2018-06-28T07:29:30.025Z,34.00
2018-06-28T07:31:59.121Z,34.70
2018-06-28T07:34:28.447Z,34.90
2018-06-28T07:36:57.749Z,35.50
2018-06-28T07:39:26.919Z,35.50
2018-06-28T07:41:56.097Z,35.90
2018-06-28T07:44:25.273Z,35.80
2018-06-28T07:46:54.414Z,35.90
2018-06-28T07:49:23.530Z,35.30
2018-06-28T07:51:52.708Z,35.60
2018-06-28T07:54:21.861Z,36.00
2018-06-28T07:56:51.014Z,35.60
2018-06-28T07:59:20.176Z,35.30
2018-06-28T08:01:49.309Z,34.70
2018-06-28T08:04:18.461Z,35.60
2018-06-28T08:06:47.687Z,36.10
2018-06-28T08:09:16.919Z,36.90
2018-06-28T08:11:46.046Z,36.30
2018-06-28T08:14:15.313Z,34.00
2018-06-28T08:16:44.481Z,33.90
2018-06-28T08:19:13.650Z,33.60
2018-06-28T08:21:42.940Z,33.90
2018-06-28T08:24:12.934Z,32.80
2018-06-28T08:26:42.220Z,30.60
2018-06-28T08:29:11.816Z,28.30
2018-06-28T08:31:41.046Z,27.90
2018-06-28T08:34:10.385Z,28.40
2018-06-28T08:36:39.597Z,28.50
2018-06-28T08:39:09.613Z,27.80
2018-06-28T08:41:38.798Z,26.90
2018-06-28T08:44:08.072Z,26.00
2018-06-28T08:46:37.175Z,25.10
2018-06-28T08:49:06.420Z,24.50
2018-06-28T08:51:35.567Z,23.90
2018-06-28T08:54:04.970Z,23.60
2018-06-28T08:56:34.106Z,23.40
2018-06-28T08:59:03.269Z,23.30
2018-06-28T09:01:32.466Z,23.40
2018-06-28T09:04:01.607Z,23.60
2018-06-28T09:06:30.775Z,23.60
2018-06-28T09:09:00.002Z,23.90
2018-06-28T09:11:29.133Z,23.90
2018-06-28T09:13:58.333Z,23.80
2018-06-28T09:16:27.545Z,23.70
2018-06-28T09:18:57.908Z,23.70
2018-06-28T09:21:27.052Z,23.70
2018-06-28T09:23:56.156Z,23.90
2018-06-28T09:26:25.602Z,24.20
2018-06-28T09:28:54.750Z,24.50
2018-06-28T09:31:23.907Z,24.60
2018-06-28T09:33:53.051Z,24.80
2018-06-28T09:36:22.172Z,24.90
2018-06-28T09:38:51.317Z,24.70
2018-06-28T09:41:20.640Z,24.50
2018-06-28T09:43:49.875Z,24.10
2018-06-28T09:46:19.060Z,24.40
2018-06-28T09:48:48.395Z,24.30
2018-06-28T09:51:17.435Z,24.10
2018-06-28T09:53:46.820Z,24.20
2018-06-28T09:56:15.961Z,24.10
2018-06-28T09:58:45.114Z,24.30
2018-06-28T10:01:14.249Z,24.80
2018-06-28T10:03:43.397Z,24.80
2018-06-28T10:06:12.789Z,25.20
2018-06-28T10:08:41.919Z,25.30
2018-06-28T10:11:11.130Z,25.30
2018-06-28T10:13:40.273Z,25.50
2018-06-28T10:16:09.578Z,25.60
2018-06-28T10:18:38.841Z,25.40
2018-06-28T10:21:07.979Z,25.30
2018-06-28T10:23:37.114Z,25.20
2018-06-28T10:26:06.341Z,25.40
2018-06-28T10:28:35.451Z,25.40
2018-06-28T10:31:04.601Z,25.30
2018-06-28T10:33:33.786Z,25.00
2018-06-28T10:36:02.933Z,24.40
2018-06-28T10:38:32.152Z,24.10
2018-06-28T10:41:01.447Z,23.90
2018-06-28T10:43:30.626Z,23.70
2018-06-28T10:45:59.934Z,23.50
2018-06-28T10:48:29.128Z,23.40
2018-06-28T10:50:58.319Z,23.30
2018-06-28T10:53:27.693Z,23.20
2018-06-28T10:55:57.322Z,23.10
2018-06-28T10:58:26.447Z,23.00
2018-06-28T11:00:55.618Z,22.90
2018-06-28T11:03:24.766Z,22.80
2018-06-28T11:05:54.190Z,22.70
2018-06-28T11:08:23.470Z,22.60
2018-06-28T11:10:52.706Z,22.40
2018-06-28T11:13:21.929Z,22.30
2018-06-28T11:15:51.102Z,22.20
2018-06-28T11:18:20.238Z,22.00
2018-06-28T11:20:49.366Z,22.00
2018-06-28T11:23:18.961Z,21.90
2018-06-28T11:25:48.115Z,21.90
2018-06-28T11:28:17.325Z,21.90
2018-06-28T11:30:46.516Z,21.90
2018-06-28T11:33:15.666Z,21.90
2018-06-28T11:35:44.901Z,22.10
2018-06-28T11:38:14.101Z,22.00
2018-06-28T11:40:43.249Z,22.10
2018-06-28T11:43:12.387Z,22.00
2018-06-28T11:45:41.891Z,21.90
2018-06-28T11:48:11.116Z,22.00
2018-06-28T11:50:40.483Z,22.10
2018-06-28T11:53:09.642Z,22.20
2018-06-28T11:55:39.094Z,22.20
2018-06-28T11:58:08.503Z,22.50
2018-06-28T12:00:37.695Z,22.70
2018-06-28T12:03:07.189Z,22.80
2018-06-28T12:05:36.626Z,22.80
2018-06-28T12:08:05.861Z,22.50
2018-06-28T12:10:34.998Z,22.40
2018-06-28T12:13:04.181Z,22.50
2018-06-28T12:15:33.298Z,22.50
2018-06-28T12:18:02.495Z,22.40
2018-06-28T12:20:31.734Z,22.50
2018-06-28T12:23:00.922Z,22.50
2018-06-28T12:25:30.089Z,22.40
2018-06-28T12:27:59.215Z,22.40
2018-06-28T12:30:28.381Z,22.30
2018-06-28T12:32:57.510Z,22.30
2018-06-28T12:35:26.754Z,22.40
2018-06-28T12:40:24.694Z,22.40
2018-06-28T12:42:54.060Z,22.60
2018-06-28T12:45:23.332Z,22.80
2018-06-28T12:47:57.887Z,22.80
2018-06-28T12:50:27.189Z,22.80
2018-06-28T12:53:02.566Z,22.80
2018-06-28T12:56:40.060Z,22.60
2018-06-28T12:59:10.580Z,22.40
2018-06-28T13:01:39.727Z,22.40
2018-06-28T13:04:08.925Z,22.40
2018-06-28T13:06:38.081Z,22.50
2018-06-28T13:09:13.905Z,22.50
2018-06-28T13:11:43.095Z,22.40
2018-06-28T13:14:12.234Z,22.30
2018-06-28T13:16:41.388Z,22.30
2018-06-28T13:19:10.590Z,22.30
2018-06-28T13:21:39.750Z,22.40
2018-06-28T13:24:08.976Z,22.30
2018-06-28T13:26:38.066Z,22.20
2018-06-28T13:29:07.378Z,22.20
2018-06-28T13:31:36.571Z,22.10
2018-06-28T13:34:05.897Z,22.00
2018-06-28T13:36:35.181Z,22.00
2018-06-28T13:39:06.768Z,22.00
2018-06-28T13:41:36.366Z,22.00
2018-06-28T13:44:05.084Z,22.10
2018-06-28T13:46:34.484Z,22.20
2018-06-28T13:49:03.797Z,22.20
2018-06-28T13:51:32.939Z,22.20
2018-06-28T13:54:02.096Z,22.20
2018-06-28T13:56:31.285Z,22.10
2018-06-28T13:59:00.400Z,21.90
2018-06-28T14:01:29.626Z,21.90
2018-06-28T14:03:58.825Z,21.90
2018-06-28T14:06:28.037Z,21.90
2018-06-28T14:08:57.233Z,22.10
2018-06-28T14:11:26.367Z,22.30
2018-06-28T14:13:55.546Z,22.60
2018-06-28T14:16:24.809Z,22.80
2018-06-28T14:18:53.874Z,22.80
2018-06-28T14:21:23.057Z,22.80
2018-06-28T14:23:52.216Z,22.60
2018-06-28T14:26:21.406Z,22.30
2018-06-28T14:28:50.541Z,22.30
2018-06-28T14:31:19.785Z,22.20
2018-06-28T14:33:49.002Z,22.10
2018-06-28T14:36:18.118Z,22.10
2018-06-28T14:38:47.259Z,21.90
2018-06-28T14:41:16.549Z,22.00
2018-06-28T14:43:45.878Z,22.00
2018-06-28T14:46:15.051Z,21.90
2018-06-28T14:48:44.274Z,21.90
2018-06-28T14:51:13.495Z,21.80
2018-06-28T14:53:42.693Z,21.70
2018-06-28T14:56:11.900Z,21.70
2018-06-28T14:58:41.167Z,21.60
2018-06-28T15:01:10.231Z,21.50
2018-06-28T15:03:39.374Z,21.50
2018-06-28T15:06:08.534Z,21.50
2018-06-28T15:08:37.626Z,21.50
2018-06-28T15:11:06.923Z,21.60
2018-06-28T15:13:36.157Z,21.50
2018-06-28T15:16:05.701Z,21.50
2018-06-28T15:18:34.903Z,21.50
2018-06-28T15:21:04.084Z,21.50
2018-06-28T15:23:33.243Z,21.50
2018-06-28T15:26:03.350Z,21.50
2018-06-28T15:28:32.577Z,21.40
2018-06-28T15:31:01.765Z,21.40
2018-06-28T15:33:30.982Z,21.40
2018-06-28T15:36:00.180Z,21.30
2018-06-28T15:38:29.334Z,21.10
2018-06-28T15:40:58.570Z,21.00
2018-06-28T15:43:27.744Z,21.00
2018-06-28T15:45:56.925Z,21.10
2018-06-28T15:48:26.112Z,21.00
2018-06-28T15:50:55.822Z,21.00
2018-06-28T15:53:25.062Z,21.00
2018-06-28T15:55:54.310Z,21.10
2018-06-28T15:58:23.540Z,21.00
2018-06-28T16:00:52.765Z,21.10
2018-06-28T16:03:22.021Z,21.00
2018-06-28T16:05:51.466Z,21.00
2018-06-28T16:08:20.709Z,21.00
2018-06-28T16:10:50.093Z,21.00
2018-06-28T16:13:19.266Z,20.90
2018-06-28T16:15:48.558Z,21.00
2018-06-28T16:18:17.779Z,21.10
2018-06-28T16:20:47.603Z,20.90
2018-06-28T16:23:17.891Z,20.90
2018-06-28T16:25:47.246Z,21.00
2018-06-28T16:33:14.396Z,21.10
2018-06-28T16:35:43.737Z,21.20
2018-06-28T16:38:13.010Z,21.20
2018-06-28T16:40:42.355Z,21.20
2018-06-28T16:43:11.602Z,21.20
2018-06-28T16:45:40.885Z,21.10
2018-06-28T16:48:10.214Z,21.20
2018-06-28T16:50:39.711Z,21.20
2018-06-28T16:53:09.000Z,21.40
2018-06-28T16:55:38.256Z,21.60
2018-06-28T16:58:09.295Z,21.30
2018-06-28T17:00:39.155Z,21.30
2018-06-28T17:03:11.784Z,21.30
2018-06-28T17:05:40.990Z,21.20
2018-06-28T17:08:11.327Z,21.40
2018-06-28T17:10:40.679Z,21.50
2018-06-28T17:13:09.917Z,21.40
2018-06-28T17:15:39.216Z,21.40
2018-06-28T17:18:08.450Z,21.30
2018-06-28T17:20:37.673Z,21.30
2018-06-28T17:23:06.955Z,21.10
2018-06-28T17:25:36.172Z,21.30
2018-06-28T17:28:05.667Z,21.30
2018-06-28T17:30:35.084Z,21.30
2018-06-28T17:33:05.806Z,21.20
2018-06-28T17:35:35.933Z,21.10
2018-06-28T17:38:05.382Z,21.10
2018-06-28T17:40:36.203Z,21.00
2018-06-28T17:43:05.571Z,20.90
2018-06-28T17:45:35.272Z,20.80
2018-06-28T17:48:05.320Z,20.80
2018-06-28T17:50:36.372Z,20.70
2018-06-28T17:53:07.545Z,20.60
2018-06-28T17:55:36.752Z,20.50
2018-06-28T17:58:06.038Z,20.50
2018-06-28T18:00:35.239Z,20.50
2018-06-28T18:03:04.607Z,20.50
2018-06-28T18:05:33.830Z,20.50
2018-06-28T18:08:03.050Z,20.40
2018-06-28T18:10:32.295Z,20.40
2018-06-28T18:13:01.825Z,20.40
2018-06-28T18:15:30.999Z,20.50
2018-06-28T18:18:00.304Z,20.40
2018-06-28T18:22:58.342Z,20.30
2018-06-28T18:25:27.576Z,20.30
2018-06-28T18:27:57.552Z,20.30
2018-06-28T18:30:26.777Z,20.40
2018-06-28T18:32:55.936Z,20.30
2018-06-28T18:35:25.145Z,20.30
2018-06-28T18:37:54.779Z,20.20
2018-06-28T18:40:23.950Z,20.10
2018-06-28T18:42:53.195Z,20.10
2018-06-28T18:45:22.435Z,20.10
2018-06-28T18:47:51.731Z,20.00
2018-06-28T18:50:21.039Z,19.90
2018-06-28T18:52:50.536Z,20.00
2018-06-28T18:55:20.731Z,20.00
2018-06-28T19:00:19.111Z,19.90
2018-06-28T19:02:49.300Z,19.90
2018-06-28T19:05:18.530Z,19.90
2018-06-28T19:10:21.993Z,19.90
2018-06-28T19:12:51.233Z,19.80
2018-06-28T19:15:25.822Z,19.80
2018-06-28T19:17:55.341Z,19.80
2018-06-28T19:20:24.659Z,19.70
2018-06-28T19:22:59.134Z,19.70
2018-06-28T19:25:28.370Z,19.60
2018-06-28T19:27:57.593Z,19.70
2018-06-28T19:30:32.105Z,19.70
2018-06-28T19:33:01.339Z,19.70
2018-06-28T19:35:30.579Z,19.60
2018-06-28T19:38:00.154Z,19.60
2018-06-28T19:40:34.706Z,19.60
2018-06-28T19:43:06.873Z,19.50
2018-06-28T19:45:36.153Z,19.50
2018-06-28T19:48:05.799Z,19.50
2018-06-28T19:51:37.776Z,19.50
2018-06-28T19:54:07.068Z,19.50
2018-06-28T19:56:36.312Z,19.40
2018-06-28T19:59:05.641Z,19.40
2018-06-28T20:01:40.251Z,19.40
2018-06-28T20:04:12.917Z,19.40
2018-06-28T20:06:44.862Z,19.30
2018-06-28T20:09:16.026Z,19.30
2018-06-28T20:11:45.343Z,19.30
2018-06-28T20:14:19.955Z,19.30
2018-06-28T20:16:54.467Z,19.30
2018-06-28T20:19:29.165Z,19.30
2018-06-28T20:21:58.438Z,19.30
2018-06-28T20:24:27.720Z,19.30
2018-06-28T20:27:02.310Z,19.10
2018-06-28T20:29:36.854Z,18.90
2018-06-28T20:33:10.881Z,19.00
2018-06-28T20:35:40.167Z,19.10
2018-06-28T20:38:09.341Z,19.10
2018-06-28T20:40:38.544Z,19.20
2018-06-28T20:43:07.901Z,19.20
2018-06-28T20:45:37.089Z,19.20
2018-06-28T20:48:06.316Z,19.00
2018-06-28T20:53:04.410Z,18.90
2018-06-28T20:55:33.910Z,19.00
2018-06-28T21:00:31.927Z,19.10
2018-06-28T21:03:01.183Z,19.10
2018-06-28T21:05:30.520Z,19.10
2018-06-28T21:07:59.989Z,19.10
2018-06-28T21:10:29.241Z,19.20
2018-06-28T21:12:58.770Z,19.30
2018-06-28T21:15:27.937Z,19.20
2018-06-28T21:17:57.104Z,19.10
2018-06-28T21:20:26.325Z,19.00
2018-06-28T21:22:55.542Z,19.00
2018-06-28T21:25:24.770Z,18.90
2018-06-28T21:27:54.430Z,18.90
2018-06-28T21:30:23.543Z,18.80
2018-06-28T21:32:52.684Z,18.80
2018-06-28T21:35:21.897Z,18.80
2018-06-28T21:37:51.035Z,18.70
2018-06-28T21:40:20.849Z,18.70
2018-06-28T21:42:49.970Z,18.70
2018-06-28T21:45:19.141Z,18.60
2018-06-28T21:47:48.368Z,18.70
2018-06-28T21:50:17.559Z,18.70
2018-06-28T21:52:46.851Z,18.70
2018-06-28T21:55:16.299Z,18.70
2018-06-28T21:57:45.485Z,18.80
2018-06-28T22:00:25.859Z,18.80
2018-06-28T22:02:55.011Z,18.80
2018-06-28T22:05:24.204Z,18.90
2018-06-28T22:07:53.433Z,18.90
2018-06-28T22:10:22.790Z,18.90
2018-06-28T22:12:52.582Z,18.90
2018-06-28T22:15:26.945Z,18.90
2018-06-28T22:17:58.906Z,18.80
2018-06-28T22:20:28.990Z,18.80
2018-06-28T22:25:29.297Z,19.00
2018-06-28T22:27:58.477Z,18.90
2018-06-28T22:30:27.660Z,18.90
2018-06-28T22:32:56.808Z,18.90
2018-06-28T22:35:25.977Z,18.90
2018-06-28T22:37:55.094Z,19.00
2018-06-28T22:40:25.001Z,19.00
2018-06-28T22:42:54.781Z,19.00
2018-06-28T22:45:24.662Z,18.90
2018-06-28T22:47:53.873Z,18.90
2018-06-28T22:50:23.032Z,19.00
2018-06-28T22:52:52.154Z,18.90
2018-06-28T22:55:21.315Z,19.00
2018-06-28T22:57:50.469Z,19.00
2018-06-28T23:00:27.455Z,19.00
2018-06-28T23:02:56.599Z,19.00
2018-06-28T23:05:25.746Z,19.00
2018-06-28T23:07:54.904Z,18.80
2018-06-28T23:10:24.049Z,18.90
2018-06-28T23:12:53.189Z,19.00
2018-06-28T23:15:22.371Z,19.00
2018-06-28T23:17:51.562Z,19.00
2018-06-28T23:20:20.682Z,19.00
2018-06-28T23:22:50.937Z,18.90
2018-06-28T23:25:20.486Z,18.90
2018-06-28T23:27:50.338Z,18.90
2018-06-28T23:30:19.585Z,18.90
2018-06-28T23:32:48.822Z,18.90
2018-06-28T23:35:18.241Z,18.90
2018-06-28T23:37:47.478Z,18.90
2018-06-28T23:40:16.669Z,18.90
2018-06-28T23:42:45.837Z,19.00
2018-06-28T23:45:14.966Z,18.90
2018-06-28T23:47:44.388Z,18.80
2018-06-28T23:50:13.616Z,18.90
2018-06-28T23:52:42.741Z,18.90
2018-06-28T23:55:11.877Z,18.90
2018-06-28T23:57:41.040Z,18.80
